createdAt,value
2023-03-13T00:01:14.360Z,8.47
2023-03-13T00:03:42.195Z,8.50
2023-03-13T00:06:09.638Z,8.44
2023-03-13T00:08:36.993Z,8.51
2023-03-13T00:11:06.009Z,8.42
2023-03-13T00:13:33.358Z,8.37
2023-03-13T00:16:08.004Z,8.40
2023-03-13T00:18:35.698Z,8.19
2023-03-13T00:21:07.151Z,7.97
2023-03-13T00:23:35.780Z,8.31
2023-03-13T00:26:08.298Z,8.31
2023-03-13T00:28:36.290Z,8.06
2023-03-13T00:31:05.388Z,8.02
2023-03-13T00:33:34.041Z,7.93
2023-03-13T00:36:01.915Z,7.98
2023-03-13T00:38:29.881Z,7.93
2023-03-13T00:41:07.268Z,8.08
2023-03-13T00:43:35.044Z,8.07
2023-03-13T00:46:02.514Z,8.19
2023-03-13T00:48:30.226Z,8.18
2023-03-13T00:50:57.855Z,8.25
2023-03-13T00:53:25.185Z,8.25
2023-03-13T00:55:55.233Z,8.38
2023-03-13T00:58:23.145Z,8.20
2023-03-13T01:00:51.433Z,8.49
2023-03-13T01:03:19.072Z,8.20
2023-03-13T01:05:55.178Z,8.40
2023-03-13T01:08:22.859Z,8.55
2023-03-13T01:10:50.542Z,8.54
2023-03-13T01:13:17.975Z,8.46
2023-03-13T01:15:45.312Z,8.54
2023-03-13T01:18:15.412Z,8.60
2023-03-13T01:20:42.745Z,8.73
2023-03-13T01:23:10.082Z,8.56
2023-03-13T01:25:38.194Z,8.74
2023-03-13T01:28:05.638Z,8.40
2023-03-13T01:30:32.958Z,8.65
2023-03-13T01:33:00.606Z,8.72
2023-03-13T01:35:27.978Z,8.67
2023-03-13T01:37:55.326Z,8.66
2023-03-13T01:40:22.913Z,8.47
2023-03-13T01:42:54.561Z,8.53
2023-03-13T01:45:49.976Z,8.45
2023-03-13T01:48:17.922Z,8.70
2023-03-13T01:50:45.521Z,8.87
2023-03-13T01:53:13.043Z,8.80
2023-03-13T01:55:40.715Z,8.74
2023-03-13T01:58:08.069Z,8.80
2023-03-13T02:00:35.791Z,8.87
2023-03-13T02:03:06.753Z,8.84
2023-03-13T02:05:34.314Z,8.79
2023-03-13T02:08:07.496Z,8.82
2023-03-13T02:10:39.846Z,8.97
2023-03-13T02:13:07.226Z,9.01
2023-03-13T02:15:34.829Z,8.94
2023-03-13T02:18:02.163Z,8.89
2023-03-13T02:20:29.760Z,9.02
2023-03-13T02:23:20.463Z,9.06
2023-03-13T02:25:54.132Z,9.11
2023-03-13T02:28:27.497Z,9.13
2023-03-13T02:30:55.940Z,8.93
2023-03-13T02:33:23.265Z,8.99
2023-03-13T02:35:50.666Z,8.82
2023-03-13T02:38:21.698Z,8.83
2023-03-13T02:40:49.185Z,8.76
2023-03-13T02:43:36.924Z,8.82
2023-03-13T02:46:13.093Z,8.98
2023-03-13T02:48:45.537Z,8.89
2023-03-13T02:51:20.031Z,8.94
2023-03-13T02:53:49.286Z,8.99
2023-03-13T02:56:17.622Z,8.70
2023-03-13T02:58:50.395Z,8.71
2023-03-13T03:01:18.790Z,8.67
2023-03-13T03:03:46.413Z,8.57
2023-03-13T03:06:13.782Z,8.87
2023-03-13T03:08:43.784Z,8.70
2023-03-13T03:11:11.508Z,8.86
2023-03-13T03:13:38.939Z,8.82
2023-03-13T03:16:15.221Z,8.87
2023-03-13T03:18:42.621Z,8.79
2023-03-13T03:21:10.317Z,8.78
2023-03-13T03:23:37.897Z,8.82
2023-03-13T03:26:05.841Z,8.63
2023-03-13T03:28:33.757Z,8.57
2023-03-13T03:31:08.305Z,8.30
2023-03-13T03:33:36.448Z,8.39
2023-03-13T03:36:09.178Z,7.88
2023-03-13T03:38:37.547Z,7.92
2023-03-13T03:41:04.985Z,7.88
2023-03-13T03:43:32.870Z,7.97
2023-03-13T03:46:01.218Z,8.00
2023-03-13T03:48:28.736Z,8.11
2023-03-13T03:50:56.116Z,8.07
2023-03-13T03:53:24.121Z,7.93
2023-03-13T03:55:51.579Z,7.71
2023-03-13T03:58:19.134Z,7.89
2023-03-13T04:00:50.549Z,8.11
2023-03-13T04:03:18.387Z,7.95
2023-03-13T04:05:46.405Z,8.04
2023-03-13T04:08:14.611Z,7.95
2023-03-13T04:10:42.486Z,7.90
2023-03-13T04:13:09.967Z,7.96
2023-03-13T04:15:39.088Z,8.11
2023-03-13T04:18:08.872Z,8.01
2023-03-13T04:20:36.444Z,7.97
2023-03-13T04:23:03.927Z,7.98
2023-03-13T04:25:31.771Z,8.05
2023-03-13T04:27:59.391Z,8.20
2023-03-13T04:30:27.072Z,8.11
2023-03-13T04:32:55.142Z,7.99
2023-03-13T04:35:22.743Z,8.07
2023-03-13T04:37:50.642Z,8.17
2023-03-13T04:40:18.519Z,8.19
2023-03-13T04:42:47.193Z,8.13
2023-03-13T04:45:14.779Z,8.19
2023-03-13T04:47:42.684Z,8.24
2023-03-13T04:50:10.898Z,8.31
2023-03-13T04:52:38.903Z,8.38
2023-03-13T04:55:06.772Z,8.42
2023-03-13T04:57:34.411Z,8.16
2023-03-13T05:00:01.991Z,8.30
2023-03-13T05:02:30.907Z,7.99
2023-03-13T05:04:58.498Z,8.01
2023-03-13T05:07:26.121Z,8.32
2023-03-13T05:09:53.917Z,8.46
2023-03-13T05:12:21.653Z,7.72
2023-03-13T05:14:50.389Z,8.16
2023-03-13T05:17:18.781Z,8.38
2023-03-13T05:19:46.562Z,8.48
2023-03-13T05:22:14.354Z,8.56
2023-03-13T05:24:44.630Z,8.59
2023-03-13T05:27:12.100Z,8.55
2023-03-13T05:29:39.855Z,8.71
2023-03-13T05:32:07.557Z,8.61
2023-03-13T05:34:36.172Z,8.78
2023-03-13T05:37:03.678Z,8.69
2023-03-13T05:39:31.628Z,8.69
2023-03-13T05:41:59.399Z,8.64
2023-03-13T05:44:27.115Z,8.46
2023-03-13T05:46:54.882Z,8.53
2023-03-13T05:49:23.627Z,8.71
2023-03-13T05:51:51.640Z,8.72
2023-03-13T05:54:19.769Z,8.77
2023-03-13T05:56:50.413Z,8.75
2023-03-13T05:59:20.827Z,8.78
2023-03-13T06:01:49.051Z,8.71
2023-03-13T06:04:17.145Z,8.91
2023-03-13T06:06:44.846Z,8.79
2023-03-13T06:09:12.388Z,8.88
2023-03-13T06:11:40.119Z,9.03
2023-03-13T06:14:07.587Z,9.28
2023-03-13T06:16:35.914Z,9.09
2023-03-13T06:19:05.446Z,9.29
2023-03-13T06:21:32.761Z,9.27
2023-03-13T06:24:00.084Z,9.39
2023-03-13T06:26:27.681Z,9.44
2023-03-13T06:28:55.049Z,9.48
2023-03-13T06:31:22.496Z,9.44
2023-03-13T06:33:53.722Z,9.50
2023-03-13T06:36:21.919Z,9.59
2023-03-13T06:38:49.539Z,9.83
2023-03-13T06:41:16.853Z,9.97
2023-03-13T06:43:44.231Z,9.72
2023-03-13T06:46:22.638Z,9.80
2023-03-13T06:48:50.429Z,9.73
2023-03-13T06:51:19.864Z,10.00
2023-03-13T06:53:48.114Z,9.61
2023-03-13T06:56:15.447Z,9.92
2023-03-13T06:58:43.044Z,9.79
2023-03-13T07:01:11.534Z,10.14
2023-03-13T07:03:39.082Z,9.87
2023-03-13T07:06:07.031Z,10.20
2023-03-13T07:08:34.639Z,10.36
2023-03-13T07:11:03.386Z,10.39
2023-03-13T07:13:31.085Z,10.74
2023-03-13T07:16:06.370Z,10.82
2023-03-13T07:18:34.254Z,10.93
2023-03-13T07:21:04.978Z,11.07
2023-03-13T07:23:32.981Z,10.42
2023-03-13T07:26:02.791Z,10.81
2023-03-13T07:28:31.123Z,10.72
2023-03-13T07:31:15.664Z,10.73
2023-03-13T07:33:43.536Z,10.88
2023-03-13T07:36:11.065Z,10.82
2023-03-13T07:38:38.477Z,10.82
2023-03-13T07:41:06.148Z,10.95
2023-03-13T07:43:33.671Z,11.07
2023-03-13T07:46:02.257Z,11.08
2023-03-13T07:48:37.504Z,11.28
2023-03-13T07:51:06.237Z,10.92
2023-03-13T07:53:34.105Z,11.07
2023-03-13T07:56:03.175Z,10.89
2023-03-13T07:58:32.493Z,11.16
2023-03-13T08:01:00.155Z,10.81
2023-03-13T08:03:28.642Z,10.17
2023-03-13T08:06:26.102Z,10.63
2023-03-13T08:08:56.293Z,10.61
2023-03-13T08:11:26.848Z,10.80
2023-03-13T08:13:54.558Z,10.60
2023-03-13T08:16:25.789Z,10.37
2023-03-13T08:18:54.428Z,10.60
2023-03-13T08:21:29.800Z,10.49
2023-03-13T08:23:59.182Z,10.69
2023-03-13T08:26:30.465Z,10.39
2023-03-13T08:29:02.575Z,10.68
2023-03-13T08:31:33.452Z,10.68
2023-03-13T08:34:00.794Z,10.77
2023-03-13T08:36:31.146Z,10.45
2023-03-13T08:39:00.146Z,10.85
2023-03-13T08:41:29.135Z,10.86
2023-03-13T08:44:02.835Z,11.13
2023-03-13T08:46:31.043Z,11.07
2023-03-13T08:48:58.590Z,11.15
2023-03-13T08:51:26.925Z,11.15
2023-03-13T08:53:56.040Z,10.96
2023-03-13T08:56:25.280Z,10.99
2023-03-13T08:58:59.976Z,10.80
2023-03-13T09:01:32.256Z,11.19
2023-03-13T09:04:03.564Z,11.26
2023-03-13T09:06:33.442Z,11.65
2023-03-13T09:09:00.907Z,11.42
2023-03-13T09:11:28.281Z,11.61
2023-03-13T09:13:56.215Z,11.78
2023-03-13T09:16:24.087Z,11.54
2023-03-13T09:18:51.785Z,11.31
2023-03-13T09:21:21.319Z,11.46
2023-03-13T09:23:48.846Z,11.83
2023-03-13T09:26:16.638Z,11.86
2023-03-13T09:28:44.300Z,11.84
2023-03-13T09:31:16.489Z,11.83
2023-03-13T09:33:44.523Z,11.97
2023-03-13T09:36:12.089Z,12.15
2023-03-13T09:38:39.724Z,12.27
2023-03-13T09:41:27.930Z,12.30
2023-03-13T09:44:08.351Z,12.36
2023-03-13T09:46:54.270Z,12.36
2023-03-13T09:49:54.421Z,12.34
2023-03-13T09:52:41.052Z,12.43
2023-03-13T09:55:13.114Z,12.55
2023-03-13T09:57:56.406Z,12.84
2023-03-13T10:00:38.670Z,13.08
2023-03-13T10:03:15.119Z,13.07
2023-03-13T10:05:53.382Z,13.11
2023-03-13T10:08:30.231Z,13.31
2023-03-13T10:11:04.644Z,13.02
2023-03-13T10:13:37.749Z,13.29
2023-03-13T10:16:09.652Z,13.01
2023-03-13T10:18:37.433Z,13.17
2023-03-13T10:21:26.296Z,13.04
2023-03-13T10:24:24.847Z,12.97
2023-03-13T10:26:52.308Z,12.94
2023-03-13T10:29:24.544Z,13.27
2023-03-13T10:32:02.428Z,13.52
2023-03-13T10:34:51.485Z,13.70
2023-03-13T10:37:29.728Z,13.82
2023-03-13T10:40:15.158Z,13.95
2023-03-13T10:42:45.766Z,14.01
2023-03-13T10:45:17.886Z,14.19
2023-03-13T10:47:45.261Z,14.03
2023-03-13T10:50:20.942Z,14.18
2023-03-13T10:52:48.712Z,14.22
2023-03-13T10:55:21.191Z,14.57
2023-03-13T10:58:04.627Z,13.97
2023-03-13T11:00:39.209Z,14.34
2023-03-13T11:03:22.031Z,14.30
2023-03-13T11:05:57.727Z,14.97
2023-03-13T11:08:26.557Z,14.69
2023-03-13T11:11:05.294Z,14.43
2023-03-13T11:13:40.958Z,14.72
2023-03-13T11:16:28.279Z,14.52
2023-03-13T11:19:18.742Z,14.83
2023-03-13T11:22:06.152Z,14.61
2023-03-13T11:25:03.565Z,14.82
2023-03-13T11:27:49.287Z,14.98
2023-03-13T11:30:47.508Z,14.85
2023-03-13T11:33:30.149Z,14.70
2023-03-13T11:36:27.587Z,14.64
2023-03-13T11:39:21.958Z,14.99
2023-03-13T11:42:24.382Z,15.17
2023-03-13T11:44:54.772Z,15.52
2023-03-13T11:47:37.080Z,15.49
2023-03-13T11:50:16.835Z,15.48
2023-03-13T11:53:08.809Z,15.40
2023-03-13T11:55:42.721Z,15.49
2023-03-13T11:58:47.862Z,15.72
2023-03-13T12:01:19.732Z,15.48
2023-03-13T12:04:13.172Z,15.93
2023-03-13T12:07:05.475Z,16.11
2023-03-13T12:09:56.171Z,16.38
2023-03-13T12:12:35.348Z,16.57
2023-03-13T12:15:18.894Z,16.75
2023-03-13T12:17:50.989Z,16.54
2023-03-13T12:20:18.516Z,16.65
2023-03-13T12:22:51.825Z,16.57
2023-03-13T12:25:25.640Z,16.62
2023-03-13T12:27:54.579Z,16.81
2023-03-13T12:30:38.601Z,16.76
2023-03-13T12:33:17.641Z,16.66
2023-03-13T12:35:47.381Z,16.77
2023-03-13T12:38:23.094Z,16.44
2023-03-13T12:41:21.791Z,16.79
2023-03-13T12:44:04.220Z,16.33
2023-03-13T12:46:38.846Z,16.27
2023-03-13T12:49:24.696Z,16.53
2023-03-13T12:52:00.387Z,16.37
2023-03-13T12:54:49.486Z,16.42
2023-03-13T12:57:59.436Z,16.16
2023-03-13T13:00:29.921Z,16.40
2023-03-13T13:03:16.576Z,16.42
2023-03-13T13:06:01.864Z,16.42
2023-03-13T13:08:38.514Z,16.47
2023-03-13T13:11:24.565Z,16.48
2023-03-13T13:13:52.192Z,16.37
2023-03-13T13:16:20.598Z,16.41
2023-03-13T13:18:47.993Z,16.39
2023-03-13T13:21:15.610Z,16.21
2023-03-13T13:23:47.097Z,16.42
2023-03-13T13:26:26.788Z,16.35
2023-03-13T13:28:54.762Z,16.40
2023-03-13T13:31:43.860Z,16.69
2023-03-13T13:34:52.568Z,16.78
2023-03-13T13:37:22.806Z,16.86
2023-03-13T13:39:54.009Z,17.23
2023-03-13T13:42:33.262Z,17.17
2023-03-13T13:45:16.156Z,17.08
2023-03-13T13:47:47.979Z,16.69
2023-03-13T13:50:23.012Z,17.22
2023-03-13T13:52:50.437Z,17.40
2023-03-13T13:55:26.737Z,17.24
2023-03-13T13:58:12.306Z,17.51
2023-03-13T14:00:47.017Z,17.61
2023-03-13T14:03:20.469Z,17.57
2023-03-13T14:05:49.167Z,17.53
2023-03-13T14:08:39.232Z,17.49
2023-03-13T14:11:25.434Z,17.32
2023-03-13T14:14:29.076Z,17.06
2023-03-13T14:16:59.333Z,17.79
2023-03-13T14:19:40.325Z,17.99
2023-03-13T14:22:09.094Z,18.09
2023-03-13T14:24:36.713Z,18.19
2023-03-13T14:27:22.310Z,18.08
2023-03-13T14:30:06.774Z,17.79
2023-03-13T14:32:34.186Z,18.20
2023-03-13T14:35:02.366Z,18.07
2023-03-13T14:37:43.145Z,17.86
2023-03-13T14:40:29.989Z,17.36
2023-03-13T14:42:59.127Z,17.15
2023-03-13T14:45:34.362Z,17.38
2023-03-13T14:48:12.413Z,17.21
2023-03-13T14:50:40.051Z,17.36
2023-03-13T14:53:22.585Z,17.43
2023-03-13T14:56:30.201Z,17.74
2023-03-13T14:59:07.080Z,17.68
2023-03-13T15:01:35.076Z,17.82
2023-03-13T15:04:02.482Z,17.90
2023-03-13T15:06:29.830Z,17.70
2023-03-13T15:09:16.472Z,17.86
2023-03-13T15:11:56.236Z,17.62
2023-03-13T15:14:39.783Z,17.65
2023-03-13T15:17:20.384Z,17.58
2023-03-13T15:19:49.258Z,17.63
2023-03-13T15:22:16.748Z,17.49
2023-03-13T15:24:56.107Z,17.40
2023-03-13T15:27:31.821Z,17.22
2023-03-13T15:29:59.154Z,17.18
2023-03-13T15:32:28.264Z,17.23
2023-03-13T15:35:01.680Z,16.93
2023-03-13T15:37:29.752Z,17.02
2023-03-13T15:39:57.378Z,17.19
2023-03-13T15:42:24.921Z,16.71
2023-03-13T15:44:52.274Z,16.60
2023-03-13T15:47:21.289Z,16.87
2023-03-13T15:49:48.698Z,16.24
2023-03-13T15:52:19.418Z,16.39
2023-03-13T15:54:46.996Z,16.55
2023-03-13T15:57:24.294Z,16.35
2023-03-13T15:59:52.521Z,16.38
2023-03-13T16:02:21.504Z,16.29
2023-03-13T16:04:49.212Z,16.20
2023-03-13T16:07:18.546Z,16.26
2023-03-13T16:09:46.027Z,16.37
2023-03-13T16:12:13.688Z,16.38
2023-03-13T16:14:41.044Z,16.44
2023-03-13T16:17:16.309Z,16.48
2023-03-13T16:19:44.345Z,16.22
2023-03-13T16:22:11.805Z,16.40
2023-03-13T16:24:39.471Z,16.01
2023-03-13T16:27:16.821Z,16.00
2023-03-13T16:29:44.897Z,15.95
2023-03-13T16:32:16.151Z,15.60
2023-03-13T16:34:43.550Z,15.87
2023-03-13T16:37:17.809Z,15.65
2023-03-13T16:39:45.512Z,15.73
2023-03-13T16:42:12.909Z,15.85
2023-03-13T16:44:40.361Z,15.73
2023-03-13T16:47:35.899Z,15.57
2023-03-13T16:50:20.883Z,15.36
2023-03-13T16:52:48.569Z,15.50
2023-03-13T16:55:16.391Z,15.47
2023-03-13T16:57:43.821Z,15.32
2023-03-13T17:00:18.999Z,15.38
2023-03-13T17:02:46.436Z,15.32
2023-03-13T17:05:15.954Z,15.39
2023-03-13T17:07:47.238Z,15.09
2023-03-13T17:10:28.602Z,15.19
2023-03-13T17:12:55.949Z,15.15
2023-03-13T17:15:24.041Z,15.01
2023-03-13T17:17:51.955Z,15.07
2023-03-13T17:20:27.468Z,15.28
2023-03-13T17:22:56.473Z,15.12
2023-03-13T17:25:24.270Z,14.92
2023-03-13T17:27:51.683Z,14.77
2023-03-13T17:30:25.386Z,14.75
2023-03-13T17:32:52.771Z,14.55
2023-03-13T17:35:20.648Z,14.81
2023-03-13T17:37:48.236Z,14.43
2023-03-13T17:40:26.812Z,14.62
2023-03-13T17:42:56.251Z,14.64
2023-03-13T17:45:23.909Z,14.38
2023-03-13T17:47:51.277Z,14.59
2023-03-13T17:50:27.175Z,14.41
2023-03-13T17:52:54.894Z,14.45
2023-03-13T17:55:22.512Z,14.48
2023-03-13T17:57:49.900Z,14.36
2023-03-13T18:00:20.443Z,14.31
2023-03-13T18:02:48.078Z,14.30
2023-03-13T18:05:15.619Z,14.32
2023-03-13T18:07:44.312Z,14.18
2023-03-13T18:10:20.189Z,14.18
2023-03-13T18:12:48.008Z,13.74
2023-03-13T18:15:15.676Z,13.86
2023-03-13T18:17:43.045Z,13.82
2023-03-13T18:20:18.929Z,13.89
2023-03-13T18:22:46.950Z,13.74
2023-03-13T18:25:14.490Z,13.78
2023-03-13T18:27:41.844Z,13.77
2023-03-13T18:30:16.623Z,13.70
2023-03-13T18:32:43.997Z,13.86
2023-03-13T18:35:13.557Z,13.79
2023-03-13T18:37:42.418Z,13.61
2023-03-13T18:40:26.539Z,13.56
2023-03-13T18:42:54.172Z,13.37
2023-03-13T18:45:23.373Z,13.42
2023-03-13T18:47:50.742Z,13.57
2023-03-13T18:50:26.800Z,13.39
2023-03-13T18:52:55.477Z,13.36
2023-03-13T18:55:24.155Z,13.09
2023-03-13T18:57:51.615Z,13.36
2023-03-13T19:00:20.116Z,13.31
2023-03-13T19:02:47.748Z,13.10
2023-03-13T19:05:15.445Z,13.22
2023-03-13T19:07:42.772Z,13.21
2023-03-13T19:10:24.410Z,12.99
2023-03-13T19:12:52.063Z,13.24
2023-03-13T19:15:19.715Z,13.18
2023-03-13T19:17:47.141Z,12.92
2023-03-13T19:20:16.668Z,12.64
2023-03-13T19:22:44.426Z,12.68
2023-03-13T19:25:11.921Z,12.65
2023-03-13T19:27:42.439Z,12.76
2023-03-13T19:30:17.250Z,12.78
2023-03-13T19:32:44.774Z,12.88
2023-03-13T19:35:12.884Z,12.70
2023-03-13T19:37:40.435Z,12.99
2023-03-13T19:40:20.633Z,12.81
2023-03-13T19:42:48.246Z,12.70
2023-03-13T19:45:17.717Z,12.43
2023-03-13T19:47:45.128Z,12.95
2023-03-13T19:50:20.351Z,12.78
2023-03-13T19:52:47.792Z,12.81
2023-03-13T19:55:15.435Z,12.37
2023-03-13T19:57:42.844Z,12.71
2023-03-13T20:00:18.699Z,12.63
2023-03-13T20:02:45.963Z,12.55
2023-03-13T20:05:13.673Z,12.40
2023-03-13T20:07:41.023Z,12.33
2023-03-13T20:10:08.592Z,12.47
2023-03-13T20:12:36.248Z,12.59
2023-03-13T20:15:03.980Z,12.69
2023-03-13T20:17:31.318Z,12.33
2023-03-13T20:19:58.932Z,12.51
2023-03-13T20:22:26.381Z,12.18
2023-03-13T20:24:55.879Z,12.29
2023-03-13T20:27:23.602Z,12.47
2023-03-13T20:29:51.016Z,12.39
2023-03-13T20:32:18.460Z,12.42
2023-03-13T20:34:46.108Z,12.32
2023-03-13T20:37:13.446Z,12.24
2023-03-13T20:39:41.849Z,12.02
2023-03-13T20:42:09.598Z,12.15
2023-03-13T20:44:36.912Z,12.38
2023-03-13T20:47:04.249Z,12.21
2023-03-13T20:49:31.854Z,12.38
2023-03-13T20:51:59.227Z,12.46
2023-03-13T20:54:26.552Z,11.84
2023-03-13T20:56:54.940Z,11.93
2023-03-13T20:59:22.264Z,12.23
2023-03-13T21:01:49.667Z,11.89
2023-03-13T21:04:17.354Z,11.82
2023-03-13T21:06:44.727Z,11.93
2023-03-13T21:09:13.461Z,11.48
2023-03-13T21:11:41.068Z,11.73
2023-03-13T21:14:08.402Z,11.42
2023-03-13T21:16:35.812Z,11.57
2023-03-13T21:19:03.456Z,11.07
2023-03-13T21:21:30.817Z,11.29
2023-03-13T21:23:58.189Z,11.57
2023-03-13T21:26:25.813Z,11.50
2023-03-13T21:28:53.233Z,11.21
2023-03-13T21:31:20.615Z,11.51
2023-03-13T21:33:48.287Z,11.40
2023-03-13T21:36:17.189Z,11.21
2023-03-13T21:38:44.708Z,11.23
2023-03-13T21:41:13.806Z,11.44
2023-03-13T21:43:41.709Z,11.51
2023-03-13T21:46:10.131Z,11.39
2023-03-13T21:48:39.045Z,11.44
2023-03-13T21:51:06.774Z,11.59
2023-03-13T21:53:34.604Z,11.39
2023-03-13T21:56:02.294Z,11.53
2023-03-13T21:58:29.667Z,11.55
2023-03-13T22:00:57.139Z,11.43
2023-03-13T22:03:26.486Z,11.54
2023-03-13T22:05:53.919Z,11.48
2023-03-13T22:08:21.269Z,11.38
2023-03-13T22:10:49.661Z,11.39
2023-03-13T22:13:17.054Z,11.16
2023-03-13T22:15:46.370Z,11.23
2023-03-13T22:18:14.572Z,11.02
2023-03-13T22:20:42.649Z,11.20
2023-03-13T22:23:10.962Z,10.84
2023-03-13T22:25:40.351Z,10.96
2023-03-13T22:28:08.026Z,11.07
2023-03-13T22:30:35.561Z,11.27
2023-03-13T22:33:06.701Z,10.98
2023-03-13T22:35:34.856Z,11.12
2023-03-13T22:38:02.727Z,10.91
2023-03-13T22:40:30.079Z,10.58
2023-03-13T22:42:57.436Z,10.89
2023-03-13T22:45:25.045Z,10.99
2023-03-13T22:47:52.377Z,11.18
2023-03-13T22:50:20.953Z,11.11
2023-03-13T22:52:48.608Z,10.97
2023-03-13T22:55:15.996Z,10.91
2023-03-13T22:57:43.381Z,10.93
2023-03-13T23:00:11.629Z,10.90
2023-03-13T23:02:38.948Z,10.33
2023-03-13T23:05:06.438Z,10.61
2023-03-13T23:07:35.794Z,10.60
2023-03-13T23:10:03.205Z,11.06
2023-03-13T23:12:30.887Z,10.65
2023-03-13T23:15:02.102Z,10.35
2023-03-13T23:17:30.584Z,10.80
2023-03-13T23:19:58.048Z,10.72
2023-03-13T23:22:29.090Z,10.73
2023-03-13T23:24:56.442Z,10.78
2023-03-13T23:27:23.879Z,10.77
2023-03-13T23:29:51.987Z,10.75
2023-03-13T23:32:19.423Z,10.65
2023-03-13T23:34:46.822Z,10.73
2023-03-13T23:37:14.438Z,10.67
2023-03-13T23:39:41.849Z,10.66
2023-03-13T23:42:09.170Z,10.43
2023-03-13T23:44:36.863Z,10.31
2023-03-13T23:47:04.236Z,10.46
2023-03-13T23:49:32.073Z,10.66
2023-03-13T23:51:59.703Z,9.95
2023-03-13T23:54:27.168Z,9.82
2023-03-13T23:56:54.519Z,10.09
2023-03-13T23:59:22.173Z,9.89
